This is the latest recevied weather packets stored in our database for station/object W8KVG. If no packets are shown the sender has not sent any weather packets the latest 1 day(s).
| Time | Temp. | Humidity | Pressure | Rain* | Wind** | Luminosity | Snow |
|---|---|---|---|---|---|---|---|
| 1836274663 | 18.33° C | 87% | 1019.5 hPa | 0 mm | 0 m/s | 0 W/m² | - |
| 1836274516 | 18.33° C | 88% | 1019.6 hPa | 0 mm | 0 m/s | 0 W/m² | - |
| 1836274361 | 18.33° C | 87% | 1019.5 hPa | 0 mm | 0.45 m/s, 345° | 0 W/m² | - |
| 1836274214 | 18.33° C | 88% | 1019.6 hPa | 0 mm | 0 m/s | 0 W/m² | - |
| 1836274059 | 18.33° C | 87% | 1019.7 hPa | 0 mm | 0.45 m/s, 348° | 0 W/m² | - |
| 1778043023 | 15° C | 95% | 1007.5 hPa | 1.78 mm | 0 m/s | 0 W/m² | - |
| 1778042721 | 15° C | 94% | 1007.7 hPa | 2.29 mm | 0 m/s | 0 W/m² | - |
| 1778042418 | 15° C | 94% | 1007.9 hPa | 1.27 mm | 0 m/s | 0 W/m² | - |
| 1778042115 | 15° C | 93% | 1007.7 hPa | 1.27 mm | 0 m/s | 0 W/m² | - |
| 1778041813 | 15° C | 93% | 1007.7 hPa | 0.51 mm | 0 m/s | 0 W/m² | - |
| 1778041512 | 15° C | 92% | 1007.6 hPa | 0 mm | 0 m/s | 0 W/m² | - |
| 1778041210 | 15° C | 92% | 1007.6 hPa | 0 mm | 0 m/s | 0 W/m² | - |
| 1778040908 | 15° C | 91% | 1007.5 hPa | 0 mm | 0 m/s | 0 W/m² | - |
| 1778040605 | 15° C | 90% | 1007.3 hPa | 0 mm | 0 m/s | 0 W/m² | - |
| 1778040303 | 15.56° C | 90% | 1007.6 hPa | 0 mm | 0 m/s | 0 W/m² | - |
| 1778039998 | 15.56° C | 89% | 1007.5 hPa | 0 mm | 0 m/s | 0 W/m² | - |
| 1778039695 | 15.56° C | 89% | 1007.6 hPa | 0 mm | 0 m/s | 0 W/m² | - |
| 1778039391 | 15.56° C | 89% | 1007.3 hPa | 0 mm | 0.89 m/s, 282° | 0 W/m² | - |
| 1778039089 | 15.56° C | 89% | 1007.3 hPa | 0 mm | 0.45 m/s, 313° | 0 W/m² | - |
| 1778038786 | 15.56° C | 89% | 1007.4 hPa | 0 mm | 0 m/s | 0 W/m² | - |
| 1778038484 | 15.56° C | 89% | 1007.1 hPa | 0 mm | 0.89 m/s, 340° | 0 W/m² | - |
| 1778038180 | 15.56° C | 89% | 1007.3 hPa | 0 mm | 0 m/s | 0 W/m² | - |
| 1778037877 | 15.56° C | 88% | 1007.3 hPa | 0 mm | 0.45 m/s, 331° | 0 W/m² | - |
| 1778037574 | 15.56° C | 88% | 1007.1 hPa | 0 mm | 0 m/s | 0 W/m² | - |
| 1778037271 | 15.56° C | 87% | 1007.2 hPa | 0 mm | 0 m/s | 0 W/m² | - |
* Rain latest hour (hover to see other rain measurements)
** Current wind speed in m/s (hover to see current wind gust speed)